Airfield :
LOGIN :

Register | Disclaimer

   EN    FR    IT 

 










Legend :    VFR   Marginal VFR   IFR   Intensive IFR   Very Intensive IFR
Visi :
Ceiling :
>= 8 km
>= 3000ft
5 to 8 km
1000 to 3000 ft
1500m to 5 km
500 to 1000 ft
800 to 1500m
200 to 500 ft
< 800m
< 200 ft
Symbols :   Thunderstorms  Fog  Heavy snow  Heavy precipitations  Wind > 20 kt
SIGMETs :     Misc.  Thunderstorms  Icing  Turbulence  Mountain Waves  Volcanic Ashes







- Airport Elevation : 17 ft
- IATA code : GRQ


EHGG - Groningen Eelde

CURRENT METAR :
  • 181525Z AUTO 23007KT 9999 BKN024 BKN042 OVC047 03/00 Q1019 R05/290095 NOSIG

EXPIRED METARs :
  • 181455Z AUTO 26004KT 240V320 9999 OVC024 04/01 Q1018 R05/290095 TEMPO 7000 -SHRASN FEW020CB
  • 181425Z AUTO 24009KT 9999 FEW035 04/01 Q1018 R05/290095 TEMPO 7000 -SHRASN FEW020CB
  • 181355Z AUTO 24008KT 9999 NSC 05/01 Q1018 R05/290095 NOSIG
  • 181325Z AUTO 24008KT 9999 SCT049 04/02 Q1018 REDZ R05/290095 NOSIG
  • 181255Z AUTO 22008KT 9999 FEW046 04/01 Q1018 R05/290095 TEMPO 6000 -SHRASN SCT020CB

TAF TAF EHGG
Valid from the 18 at 12:00 until the 19 at 18:00 UTC


181117Z 1812/1918 23006KT 9999 FEW035
PROB30
TEMPO 1812/1814 27012KT 3000 -SHSNRA SCT020CB
PROB30 1900/1908 4000 BR
No reported NOTAMs for that airfield.



MET'MAP, your aeronautical weather chart ! - Copyright ORBIFLY December 2007 - Disclaimer

ORBIFLY MET'MAP TEAM :

Programming & Development : Alexandra Zaïnal
Concept & Development : Baudouin d'Aumeries
Co-Development & Prog : Marc-Olivier Méhu
Technical & hardware support : Manuel Goepfert

Contact : metmap@orbifly.com




SOURCES & CREDITS :

   NOAA